Time;durP1;ratioP1;P1;durP2;ratioP2;P2;SDS_P1;SDS_P2;PMS_P1;PMS_P2;Temp;Humidity;BMP_temperature;BMP_pressure;BME280_temperature;BME280_humidity;BME280_pressure;Samples;Min_cycle;Max_cycle;Signal;HPM_P1;HPM_P2
2023/09/17 00:01:12;;;;;;;20.45;17.05;;;14.80;99.90;;;;;;5057179;28;20054;-66
2023/09/17 00:03:38;;;;;;;19.50;16.02;;;14.80;99.90;;;;;;5101239;27;20047;-66
2023/09/17 00:06:05;;;;;;;21.45;16.95;;;14.80;99.90;;;;;;5050903;28;20062;-66
2023/09/17 00:08:31;;;;;;;20.02;16.73;;;14.80;99.90;;;;;;5065127;28;20140;-67
2023/09/17 00:10:56;;;;;;;21.35;18.05;;;14.70;99.90;;;;;;5060905;28;20520;-67
2023/09/17 00:13:22;;;;;;;20.10;17.38;;;14.70;99.90;;;;;;5055423;28;20051;-66
2023/09/17 00:15:49;;;;;;;19.83;16.73;;;14.70;99.90;;;;;;5057583;28;20138;-66
2023/09/17 00:18:15;;;;;;;20.08;16.90;;;14.70;99.90;;;;;;5061382;28;20094;-66
2023/09/17 00:20:41;;;;;;;20.88;18.08;;;14.70;99.90;;;;;;5067852;28;20057;-66
2023/09/17 00:23:07;;;;;;;21.40;18.75;;;14.70;99.90;;;;;;5042895;28;20620;-66
2023/09/17 00:25:32;;;;;;;20.88;18.33;;;14.70;99.90;;;;;;5047773;28;20446;-66
2023/09/17 00:27:59;;;;;;;23.13;17.95;;;14.60;99.90;;;;;;5047515;28;20131;-69
2023/09/17 00:30:25;;;;;;;23.30;19.33;;;14.60;99.90;;;;;;5051226;28;20058;-69
2023/09/17 00:32:50;;;;;;;22.92;18.15;;;14.60;99.90;;;;;;5064178;28;20071;-70
2023/09/17 00:35:16;;;;;;;21.73;17.98;;;14.60;99.90;;;;;;5100770;28;20133;-70
2023/09/17 00:37:43;;;;;;;21.05;18.15;;;14.60;99.90;;;;;;5067637;28;20059;-70
2023/09/17 00:40:12;;;;;;;23.35;19.25;;;14.60;99.90;;;;;;5068933;28;20149;-70
2023/09/17 00:42:40;;;;;;;20.48;17.80;;;14.60;99.90;;;;;;5050735;28;20132;-70
2023/09/17 00:45:06;;;;;;;21.67;18.00;;;14.60;99.90;;;;;;5068318;28;20052;-70
2023/09/17 00:47:32;;;;;;;22.20;19.58;;;14.60;99.90;;;;;;5061514;28;20078;-70
2023/09/17 00:50:01;;;;;;;26.92;19.70;;;14.50;99.90;;;;;;5049796;28;20061;-70
2023/09/17 00:52:27;;;;;;;22.95;17.77;;;14.50;99.90;;;;;;5030848;28;20469;-69
2023/09/17 00:54:54;;;;;;;22.10;17.35;;;14.50;99.90;;;;;;5049499;28;20045;-70
2023/09/17 00:57:24;;;;;;;20.30;17.95;;;14.50;99.90;;;;;;5032588;28;20064;-69
2023/09/17 00:59:50;;;;;;;20.23;17.02;;;14.50;99.90;;;;;;5041581;28;20087;-69
2023/09/17 01:02:19;;;;;;;21.08;17.50;;;14.50;99.90;;;;;;5053288;28;20048;-69
2023/09/17 01:04:49;;;;;;;22.52;17.70;;;14.50;99.90;;;;;;5036182;28;20063;-69
2023/09/17 01:07:20;;;;;;;21.70;16.77;;;14.50;99.90;;;;;;5044179;28;20112;-70
2023/09/17 01:09:46;;;;;;;20.05;16.90;;;14.40;99.90;;;;;;5065676;28;20064;-69
2023/09/17 01:12:16;;;;;;;20.85;17.30;;;14.40;99.90;;;;;;5063684;28;20068;-69
2023/09/17 01:14:43;;;;;;;20.20;16.48;;;14.40;99.90;;;;;;5031434;28;20554;-69
2023/09/17 01:17:09;;;;;;;19.10;17.02;;;14.40;99.90;;;;;;5065074;28;20045;-69
2023/09/17 01:19:36;;;;;;;21.88;17.60;;;14.40;99.90;;;;;;5067782;28;20053;-69
2023/09/17 01:22:06;;;;;;;19.73;16.95;;;14.30;99.90;;;;;;5066334;28;20053;-69
2023/09/17 01:24:41;;;;;;;20.83;17.70;;;14.30;99.90;;;;;;5075317;28;20124;-69
2023/09/17 01:27:09;;;;;;;20.25;17.20;;;14.30;99.90;;;;;;5062038;28;20169;-68
2023/09/17 01:29:38;;;;;;;23.10;18.30;;;14.30;99.90;;;;;;5050016;28;20132;-69
2023/09/17 01:32:05;;;;;;;20.83;17.23;;;14.30;99.90;;;;;;5037098;28;20076;-69
2023/09/17 01:34:32;;;;;;;20.20;18.00;;;14.30;99.90;;;;;;5031116;28;20044;-69
2023/09/17 01:37:02;;;;;;;22.05;18.17;;;14.30;99.90;;;;;;5042866;28;20123;-69
2023/09/17 01:39:33;;;;;;;20.05;17.13;;;14.30;99.90;;;;;;5036793;28;20036;-69
2023/09/17 01:42:02;;;;;;;21.08;16.92;;;14.30;99.90;;;;;;5047750;28;20440;-68
2023/09/17 01:44:30;;;;;;;20.67;16.65;;;14.30;99.90;;;;;;5052693;28;20063;-68
2023/09/17 01:47:00;;;;;;;19.63;17.15;;;14.30;99.90;;;;;;5048235;28;20108;-69
2023/09/17 01:49:28;;;;;;;24.20;18.35;;;14.30;99.90;;;;;;5032636;28;20045;-69
2023/09/17 01:51:56;;;;;;;19.20;16.63;;;14.30;99.90;;;;;;5047561;28;20083;-69
2023/09/17 01:54:23;;;;;;;19.10;16.85;;;14.30;99.90;;;;;;5053152;28;20048;-69
2023/09/17 01:56:49;;;;;;;20.60;17.67;;;14.30;99.90;;;;;;5048267;28;20045;-69
2023/09/17 01:59:15;;;;;;;22.70;18.08;;;14.30;99.90;;;;;;5063611;28;20048;-69
2023/09/17 02:01:45;;;;;;;20.52;17.80;;;14.30;99.90;;;;;;5054390;28;20043;-69
2023/09/17 02:04:11;;;;;;;21.95;17.65;;;14.30;99.90;;;;;;5031863;28;20069;-69
2023/09/17 02:06:36;;;;;;;24.27;19.77;;;14.30;99.90;;;;;;5048736;28;20417;-68
2023/09/17 02:09:08;;;;;;;22.95;18.30;;;14.30;99.90;;;;;;5032589;28;20861;-68
2023/09/17 02:11:34;;;;;;;;;;;14.30;99.90;;;;;;5051605;28;20063;-69
2023/09/17 02:14:00;;;;;;;22.75;18.55;;;14.30;99.90;;;;;;5049735;28;19924;-69
2023/09/17 02:16:26;;;;;;;23.95;20.88;;;14.30;99.90;;;;;;5042030;28;20546;-69
2023/09/17 02:18:52;;;;;;;22.55;19.95;;;14.30;99.90;;;;;;5064307;28;20466;-69
2023/09/17 02:21:18;;;;;;;23.10;19.20;;;14.30;99.90;;;;;;5062832;28;20183;-68
2023/09/17 02:23:45;;;;;;;23.73;19.80;;;14.30;99.90;;;;;;5058489;28;20044;-68
2023/09/17 02:26:11;;;;;;;21.40;18.40;;;14.40;99.90;;;;;;5066178;28;20071;-68
2023/09/17 02:28:37;;;;;;;21.80;18.80;;;14.40;99.90;;;;;;5065788;28;20040;-68
2023/09/17 02:31:02;;;;;;;25.08;20.08;;;14.40;99.90;;;;;;5066159;28;20078;-65
2023/09/17 02:33:31;;;;;;;25.90;20.95;;;14.40;99.90;;;;;;5063664;28;20775;-65
2023/09/17 02:35:56;;;;;;;27.98;21.88;;;14.40;99.90;;;;;;5043164;28;20123;-65
2023/09/17 02:38:22;;;;;;;27.23;20.55;;;14.50;99.90;;;;;;5063681;28;20148;-65
2023/09/17 02:40:48;;;;;;;29.23;22.73;;;14.50;99.90;;;;;;5061503;28;20047;-65
2023/09/17 02:43:14;;;;;;;33.42;23.90;;;14.50;99.90;;;;;;5064924;28;20095;-64
2023/09/17 02:45:40;;;;;;;28.25;22.50;;;14.50;99.90;;;;;;5065960;28;20051;-65
2023/09/17 02:48:06;;;;;;;27.00;22.35;;;14.60;99.90;;;;;;5065780;28;20049;-68
2023/09/17 02:50:31;;;;;;;29.50;22.48;;;14.60;99.90;;;;;;5067229;28;20055;-68
2023/09/17 02:52:58;;;;;;;29.33;24.23;;;14.60;99.90;;;;;;5064455;28;20145;-68
2023/09/17 02:55:24;;;;;;;27.85;23.88;;;14.70;99.90;;;;;;5067409;28;20390;-68
2023/09/17 02:57:50;;;;;;;25.70;21.52;;;14.70;99.90;;;;;;5066044;28;20048;-69
2023/09/17 03:00:17;;;;;;;30.33;22.20;;;14.70;99.90;;;;;;5066446;28;20201;-66
2023/09/17 03:02:47;;;;;;;29.45;22.15;;;14.70;99.90;;;;;;5062951;28;20068;-65
2023/09/17 03:05:14;;;;;;;29.40;25.10;;;14.80;99.90;;;;;;5057220;28;20040;-68
2023/09/17 03:07:40;;;;;;;32.17;25.75;;;14.80;99.90;;;;;;5057473;28;20516;-68
2023/09/17 03:10:10;;;;;;;30.70;25.25;;;14.80;99.90;;;;;;5060624;28;20056;-68
2023/09/17 03:12:36;;;;;;;31.33;24.58;;;14.80;99.90;;;;;;5058695;28;20061;-68
2023/09/17 03:15:03;;;;;;;28.65;24.58;;;14.90;99.90;;;;;;5029648;28;20060;-69
2023/09/17 03:17:29;;;;;;;34.00;27.27;;;14.90;99.90;;;;;;5055822;28;20063;-68
2023/09/17 03:19:54;;;;;;;33.28;27.00;;;14.90;99.90;;;;;;5035170;28;20053;-68
2023/09/17 03:22:20;;;;;;;37.03;29.52;;;15.00;99.90;;;;;;5046710;28;20082;-68
2023/09/17 03:24:46;;;;;;;32.58;27.92;;;15.00;99.90;;;;;;5049438;28;20673;-69
2023/09/17 03:27:11;;;;;;;33.35;26.60;;;15.00;99.90;;;;;;5043111;28;20087;-69
2023/09/17 03:29:37;;;;;;;34.25;27.33;;;15.10;99.90;;;;;;5069539;28;20487;-69
2023/09/17 03:32:03;;;;;;;35.63;29.55;;;15.10;99.90;;;;;;5064554;28;20056;-69
2023/09/17 03:34:29;;;;;;;33.60;28.85;;;15.10;99.90;;;;;;5051475;28;20064;-69
2023/09/17 03:36:55;;;;;;;35.50;28.90;;;15.10;99.90;;;;;;5040981;28;20049;-68
2023/09/17 03:39:21;;;;;;;36.13;29.17;;;15.10;99.90;;;;;;5055009;28;20591;-68
2023/09/17 03:41:46;;;;;;;33.58;28.25;;;15.20;99.90;;;;;;5066373;28;20052;-68
2023/09/17 03:44:14;;;;;;;32.75;27.60;;;15.10;99.90;;;;;;5041518;28;20052;-68
2023/09/17 03:46:40;;;;;;;34.75;28.50;;;15.20;99.90;;;;;;5050512;28;20053;-68
2023/09/17 03:49:06;;;;;;;33.50;28.92;;;15.20;99.90;;;;;;5044585;28;20051;-68
2023/09/17 03:51:32;;;;;;;32.65;28.20;;;15.20;99.90;;;;;;5058540;28;20441;-68
2023/09/17 03:53:59;;;;;;;30.10;26.27;;;15.20;99.90;;;;;;5051921;28;20591;-68
2023/09/17 03:56:25;;;;;;;31.20;27.73;;;15.20;99.90;;;;;;5051612;28;20448;-68
2023/09/17 03:58:54;;;;;;;34.30;28.23;;;15.20;99.90;;;;;;5059700;28;20049;-68
2023/09/17 04:01:20;;;;;;;29.58;26.05;;;15.20;99.90;;;;;;5061428;28;20117;-68
2023/09/17 04:03:46;;;;;;;32.67;25.30;;;15.20;99.90;;;;;;5044648;28;20098;-68
2023/09/17 04:06:12;;;;;;;28.83;25.73;;;15.20;99.90;;;;;;5059574;28;20057;-68
2023/09/17 04:08:37;;;;;;;30.63;25.75;;;15.20;99.90;;;;;;5061568;28;20190;-68
2023/09/17 04:11:04;;;;;;;32.30;24.60;;;15.20;99.90;;;;;;5069137;28;20056;-68
2023/09/17 04:13:30;;;;;;;29.52;25.80;;;15.20;99.90;;;;;;5067655;28;20056;-68
2023/09/17 04:15:56;;;;;;;31.08;25.55;;;15.20;99.90;;;;;;5066645;28;20562;-68
2023/09/17 04:18:22;;;;;;;28.52;24.80;;;15.30;99.90;;;;;;5063304;28;20049;-68
2023/09/17 04:20:48;;;;;;;29.85;25.70;;;15.30;99.90;;;;;;5064219;28;20405;-69
2023/09/17 04:23:13;;;;;;;29.08;24.45;;;15.30;99.90;;;;;;5048305;28;20052;-69
2023/09/17 04:25:39;;;;;;;29.73;26.15;;;15.30;99.90;;;;;;5041201;28;20519;-68
2023/09/17 04:28:06;;;;;;;29.00;25.58;;;15.30;99.90;;;;;;5066505;28;20048;-68
2023/09/17 04:30:31;;;;;;;28.67;25.27;;;15.30;99.90;;;;;;5068055;28;20080;-68
2023/09/17 04:32:57;;;;;;;28.27;25.05;;;15.30;99.90;;;;;;5043699;28;20133;-68
2023/09/17 04:35:23;;;;;;;26.83;23.58;;;15.30;99.90;;;;;;5037184;28;20045;-68
2023/09/17 04:37:49;;;;;;;31.08;26.70;;;15.30;99.90;;;;;;5073226;28;20052;-68
2023/09/17 04:40:18;;;;;;;26.55;23.55;;;15.30;99.90;;;;;;5059363;28;20631;-68
2023/09/17 04:42:45;;;;;;;31.42;25.75;;;15.30;99.90;;;;;;5061944;28;20732;-68
2023/09/17 04:45:12;;;;;;;29.70;25.45;;;15.30;99.90;;;;;;5046522;28;20194;-68
2023/09/17 04:47:39;;;;;;;28.02;24.23;;;15.30;99.90;;;;;;5059487;28;20131;-68
2023/09/17 04:50:12;;;;;;;26.08;23.13;;;15.30;99.90;;;;;;5059002;28;20048;-69
2023/09/17 04:52:38;;;;;;;26.02;23.23;;;15.30;99.90;;;;;;5056136;28;20536;-68
2023/09/17 04:55:05;;;;;;;27.45;23.63;;;15.40;99.90;;;;;;5063466;28;20056;-68
2023/09/17 04:57:31;;;;;;;28.67;25.45;;;15.30;99.90;;;;;;5071473;28;20535;-69
2023/09/17 04:59:57;;;;;;;32.25;28.05;;;15.40;99.90;;;;;;5054387;28;20055;-68
2023/09/17 05:02:22;;;;;;;37.63;29.33;;;15.40;99.90;;;;;;5090687;28;20056;-69
2023/09/17 05:04:48;;;;;;;35.45;29.30;;;15.40;99.90;;;;;;5052297;28;20154;-68
2023/09/17 05:07:14;;;;;;;34.00;28.05;;;15.40;99.90;;;;;;5042984;28;20239;-68
2023/09/17 05:09:40;;;;;;;30.83;26.52;;;15.40;99.90;;;;;;5066083;28;20056;-68
2023/09/17 05:12:08;;;;;;;31.00;26.45;;;15.40;99.90;;;;;;5097366;28;20052;-69
2023/09/17 05:14:34;;;;;;;32.83;27.45;;;15.40;99.90;;;;;;5061366;28;20052;-68
2023/09/17 05:17:00;;;;;;;30.80;27.50;;;15.40;99.90;;;;;;5065201;28;20043;-68
2023/09/17 05:19:25;;;;;;;31.55;27.35;;;15.40;99.90;;;;;;5053748;28;20052;-69
2023/09/17 05:21:51;;;;;;;33.97;27.98;;;15.40;99.90;;;;;;5061046;28;20047;-68
2023/09/17 05:24:17;;;;;;;32.45;27.65;;;15.50;99.90;;;;;;5040080;28;20060;-68
2023/09/17 05:26:43;;;;;;;34.47;30.40;;;15.50;99.90;;;;;;5074747;28;20045;-69
2023/09/17 05:29:11;;;;;;;34.20;29.73;;;15.50;99.90;;;;;;5066291;28;20048;-69
2023/09/17 05:31:37;;;;;;;32.35;27.35;;;15.50;99.90;;;;;;5060979;28;20396;-69
2023/09/17 05:34:03;;;;;;;36.00;29.65;;;15.50;99.90;;;;;;5045867;28;20032;-65
2023/09/17 05:36:30;;;;;;;35.00;28.17;;;15.50;99.90;;;;;;5048408;28;20118;-65
2023/09/17 05:38:57;;;;;;;35.10;29.70;;;15.50;99.90;;;;;;5045960;28;20051;-65
2023/09/17 05:41:22;;;;;;;33.10;29.50;;;15.60;99.90;;;;;;5060090;28;20060;-65
2023/09/17 05:43:48;;;;;;;36.97;29.83;;;15.60;99.90;;;;;;5062553;28;20047;-65
2023/09/17 05:46:14;;;;;;;36.22;29.73;;;15.60;99.90;;;;;;5045401;28;20056;-65
2023/09/17 05:48:40;;;;;;;35.35;29.45;;;15.60;99.90;;;;;;5062151;28;20051;-65
2023/09/17 05:51:07;;;;;;;33.35;29.77;;;15.70;99.90;;;;;;5047529;28;20164;-65
2023/09/17 05:53:33;;;;;;;37.63;30.50;;;15.70;99.90;;;;;;5057938;28;20098;-65
2023/09/17 05:56:00;;;;;;;35.88;30.48;;;15.70;99.90;;;;;;5076707;28;20060;-69
2023/09/17 05:58:25;;;;;;;35.50;29.10;;;15.70;99.90;;;;;;5046471;28;20040;-68
2023/09/17 06:00:53;;;;;;;35.10;29.20;;;15.70;99.90;;;;;;5060920;28;20037;-68
2023/09/17 06:03:19;;;;;;;36.22;29.77;;;15.70;99.90;;;;;;5035236;28;20040;-68
2023/09/17 06:05:44;;;;;;;35.47;30.33;;;15.70;99.90;;;;;;5061324;28;20074;-65
2023/09/17 06:08:10;;;;;;;36.75;30.42;;;15.80;99.90;;;;;;5047582;28;20589;-68
2023/09/17 06:10:36;;;;;;;39.40;32.15;;;15.80;99.90;;;;;;5044662;28;20994;-68
2023/09/17 06:13:02;;;;;;;37.42;29.83;;;15.80;99.90;;;;;;5055229;28;20085;-68
2023/09/17 06:15:27;;;;;;;35.75;29.63;;;15.80;99.90;;;;;;5041543;28;20351;-69
2023/09/17 06:17:53;;;;;;;34.50;28.15;;;15.80;99.90;;;;;;5045028;28;20160;-68
2023/09/17 06:20:19;;;;;;;40.53;31.15;;;15.80;99.90;;;;;;5058597;28;20056;-69
2023/09/17 06:22:47;;;;;;;34.85;28.63;;;15.90;99.90;;;;;;5053761;28;20413;-69
2023/09/17 06:25:13;;;;;;;34.72;29.48;;;15.90;99.90;;;;;;5041150;28;20127;-69
2023/09/17 06:27:39;;;;;;;32.97;29.38;;;15.90;99.90;;;;;;5060985;28;20040;-69
2023/09/17 06:30:05;;;;;;;33.95;28.95;;;15.90;99.90;;;;;;5051593;28;20041;-69
2023/09/17 06:32:31;;;;;;;32.30;28.00;;;15.90;99.90;;;;;;5056550;28;20048;-69
2023/09/17 06:34:57;;;;;;;32.83;29.30;;;15.90;99.90;;;;;;5056076;28;20040;-69
2023/09/17 06:37:23;;;;;;;35.65;30.02;;;16.00;99.90;;;;;;5064972;28;20062;-68
2023/09/17 06:39:49;;;;;;;34.85;30.17;;;16.00;99.90;;;;;;5040451;28;20040;-69
2023/09/17 06:42:14;;;;;;;33.72;28.65;;;16.00;99.90;;;;;;5064430;28;20102;-69
2023/09/17 06:44:40;;;;;;;35.95;29.00;;;16.00;99.90;;;;;;5032639;28;20463;-69
2023/09/17 06:47:06;;;;;;;37.80;29.63;;;16.10;99.90;;;;;;5039695;28;20626;-69
2023/09/17 06:49:32;;;;;;;32.83;28.42;;;16.10;99.90;;;;;;5031659;28;20045;-69
2023/09/17 06:51:57;;;;;;;32.33;28.70;;;16.10;99.90;;;;;;5078210;28;20068;-69
2023/09/17 06:54:23;;;;;;;36.13;30.83;;;16.20;99.90;;;;;;5068238;28;20049;-69
2023/09/17 06:56:49;;;;;;;34.03;30.20;;;16.20;99.90;;;;;;5025956;28;20593;-69
2023/09/17 06:59:15;;;;;;;34.55;30.58;;;16.20;99.90;;;;;;5046271;28;20123;-69
2023/09/17 07:01:43;;;;;;;35.17;29.40;;;16.20;99.90;;;;;;5043731;28;20044;-70
2023/09/17 07:04:08;;;;;;;34.85;30.73;;;16.30;99.90;;;;;;5054542;28;20061;-69
2023/09/17 07:06:34;;;;;;;37.78;31.23;;;16.30;99.90;;;;;;5057371;28;20043;-69
2023/09/17 07:09:00;;;;;;;35.92;31.13;;;16.30;99.90;;;;;;5036893;28;20126;-69
2023/09/17 07:11:25;;;;;;;36.45;32.47;;;16.50;99.90;;;;;;5062979;28;20056;-69
2023/09/17 07:13:51;;;;;;;35.80;31.95;;;16.50;99.90;;;;;;5054153;28;20044;-69
2023/09/17 07:16:18;;;;;;;36.63;31.27;;;16.50;99.90;;;;;;5088427;28;20059;-68
2023/09/17 07:18:44;;;;;;;33.75;29.73;;;16.70;99.90;;;;;;5054908;28;20067;-69
2023/09/17 07:21:10;;;;;;;38.92;29.77;;;16.70;99.90;;;;;;5056280;28;20175;-69
2023/09/17 07:23:36;;;;;;;33.20;29.27;;;16.80;99.90;;;;;;5040628;28;20752;-69
2023/09/17 07:26:03;;;;;;;32.67;29.00;;;16.80;99.90;;;;;;5055700;28;20052;-69
2023/09/17 07:28:30;;;;;;;31.20;27.80;;;16.90;99.90;;;;;;5059145;28;20523;-69
2023/09/17 07:30:56;;;;;;;32.95;27.20;;;17.00;99.90;;;;;;5056588;28;20052;-69
2023/09/17 07:33:22;;;;;;;31.63;26.60;;;17.00;99.90;;;;;;5058606;28;20053;-68
2023/09/17 07:35:48;;;;;;;30.95;25.88;;;17.00;99.90;;;;;;5049732;28;20124;-69
2023/09/17 07:38:14;;;;;;;36.50;26.35;;;17.10;99.90;;;;;;5028850;28;22305;-71
2023/09/17 07:40:39;;;;;;;31.15;26.27;;;17.10;99.90;;;;;;5046928;28;20466;-69
2023/09/17 07:43:06;;;;;;;28.73;25.40;;;17.10;99.90;;;;;;5042044;28;20124;-68
2023/09/17 07:45:34;;;;;;;29.77;25.05;;;17.20;99.90;;;;;;5028347;28;20049;-68
2023/09/17 07:48:03;;;;;;;25.05;22.35;;;17.20;99.90;;;;;;5068953;28;20493;-68
2023/09/17 07:50:29;;;;;;;28.08;24.33;;;17.20;99.90;;;;;;5057400;28;20098;-69
2023/09/17 07:52:55;;;;;;;27.20;22.55;;;17.30;99.90;;;;;;5037627;28;20047;-69
2023/09/17 07:55:21;;;;;;;26.63;22.80;;;17.30;99.90;;;;;;5068873;28;20049;-69
2023/09/17 07:57:46;;;;;;;27.95;23.77;;;17.30;99.90;;;;;;5023072;28;20615;-68
2023/09/17 08:00:16;;;;;;;30.70;23.45;;;17.30;99.90;;;;;;5071271;28;20049;-69
2023/09/17 08:02:45;;;;;;;26.17;22.50;;;17.40;99.90;;;;;;5038444;28;20091;-68
2023/09/17 08:05:11;;;;;;;25.77;22.73;;;17.40;99.90;;;;;;5036241;28;20128;-68
2023/09/17 08:07:37;;;;;;;27.25;22.38;;;17.40;99.90;;;;;;5032977;28;20048;-68
2023/09/17 08:10:03;;;;;;;26.48;22.88;;;17.40;99.90;;;;;;5045849;28;20053;-68
2023/09/17 08:12:32;;;;;;;26.00;23.00;;;17.40;99.90;;;;;;5043481;28;20074;-69
2023/09/17 08:14:58;;;;;;;26.90;22.48;;;17.40;99.90;;;;;;5087425;27;20096;-70
2023/09/17 08:17:25;;;;;;;28.98;23.10;;;17.40;99.90;;;;;;5036117;28;20628;-70
2023/09/17 08:19:51;;;;;;;29.60;24.42;;;17.40;99.90;;;;;;5050963;28;20071;-70
2023/09/17 08:22:17;;;;;;;28.00;24.58;;;17.50;99.90;;;;;;5052315;28;20056;-67
2023/09/17 08:24:43;;;;;;;28.23;25.23;;;17.40;99.90;;;;;;5057718;28;20045;-70
2023/09/17 08:27:09;;;;;;;27.63;24.70;;;17.50;99.90;;;;;;5055248;28;20052;-70
2023/09/17 08:29:35;;;;;;;28.85;24.63;;;17.40;99.90;;;;;;5053828;28;20087;-70
2023/09/17 08:32:01;;;;;;;29.35;25.20;;;17.50;99.90;;;;;;5065743;28;20102;-70
2023/09/17 08:34:27;;;;;;;27.90;23.90;;;17.50;99.90;;;;;;5045254;28;20071;-68
2023/09/17 08:36:53;;;;;;;31.02;25.02;;;17.50;99.90;;;;;;5042196;28;20028;-69
2023/09/17 08:39:19;;;;;;;30.85;25.52;;;17.50;99.90;;;;;;5043351;28;20053;-69
2023/09/17 08:41:47;;;;;;;31.27;25.67;;;17.50;99.90;;;;;;5044001;28;20084;-69
2023/09/17 08:44:14;;;;;;;33.33;26.90;;;17.50;99.90;;;;;;5033754;28;20045;-68
2023/09/17 08:46:40;;;;;;;32.03;26.60;;;17.50;99.90;;;;;;5055270;28;20060;-68
2023/09/17 08:49:06;;;;;;;31.40;27.27;;;17.50;99.90;;;;;;5066163;28;20070;-69
2023/09/17 08:51:37;;;;;;;33.10;28.27;;;17.60;99.90;;;;;;5050233;28;20056;-68
2023/09/17 08:54:11;;;;;;;30.88;26.85;;;17.60;99.90;;;;;;5059577;28;20131;-70
2023/09/17 08:56:42;;;;;;;34.97;28.05;;;17.60;99.90;;;;;;5057535;28;20053;-70
2023/09/17 08:59:30;;;;;;;33.53;27.95;;;17.60;99.90;;;;;;5055334;28;20113;-68
2023/09/17 09:02:01;;;;;;;29.40;25.35;;;17.60;99.90;;;;;;5040664;28;20041;-68
2023/09/17 09:04:29;;;;;;;31.52;26.52;;;17.60;99.90;;;;;;5055448;28;20126;-68
2023/09/17 09:06:55;;;;;;;33.42;27.05;;;17.60;99.90;;;;;;5052369;28;20079;-68
2023/09/17 09:09:23;;;;;;;33.78;28.88;;;17.60;99.90;;;;;;5046602;28;20121;-68
2023/09/17 09:11:49;;;;;;;34.50;28.40;;;17.60;99.90;;;;;;5042825;28;20048;-66
2023/09/17 09:14:15;;;;;;;36.47;29.95;;;17.60;99.90;;;;;;5030498;28;20052;-67
2023/09/17 09:16:43;;;;;;;35.35;29.88;;;17.60;99.90;;;;;;5057582;28;20045;-70
2023/09/17 09:19:09;;;;;;;36.45;28.98;;;17.70;99.90;;;;;;5071482;28;20489;-67
2023/09/17 09:21:35;;;;;;;32.97;27.80;;;17.60;99.90;;;;;;5052442;28;20048;-67
2023/09/17 09:24:01;;;;;;;36.03;29.73;;;17.70;99.90;;;;;;5054228;28;20040;-69
2023/09/17 09:26:36;;;;;;;37.25;30.10;;;17.70;99.90;;;;;;5051072;28;20526;-68
2023/09/17 09:29:04;;;;;;;32.15;28.65;;;17.70;99.90;;;;;;5038984;28;20051;-68
2023/09/17 09:31:31;;;;;;;33.88;28.90;;;17.70;99.90;;;;;;5051774;28;20044;-67
2023/09/17 09:34:01;;;;;;;36.42;30.05;;;17.70;99.90;;;;;;5033078;28;20412;-68
2023/09/17 09:36:34;;;;;;;31.50;27.93;;;17.70;99.90;;;;;;5046027;28;20052;-68
2023/09/17 09:39:01;;;;;;;35.42;28.42;;;17.70;99.90;;;;;;5052650;28;20333;-68
2023/09/17 09:41:29;;;;;;;36.33;28.52;;;17.70;99.90;;;;;;5046713;28;20057;-70
2023/09/17 09:43:56;;;;;;;34.45;27.63;;;17.70;99.90;;;;;;5065050;28;20083;-69
2023/09/17 09:46:28;;;;;;;33.92;27.75;;;17.70;99.90;;;;;;5078819;28;20153;-69
2023/09/17 09:49:00;;;;;;;31.17;26.90;;;17.70;99.90;;;;;;5043835;28;20049;-68
2023/09/17 09:51:27;;;;;;;33.75;25.30;;;17.70;99.90;;;;;;5073261;28;20067;-69
2023/09/17 09:53:55;;;;;;;30.40;25.13;;;17.60;99.90;;;;;;5049215;28;20506;-69
2023/09/17 09:56:27;;;;;;;29.85;25.00;;;17.60;99.90;;;;;;5037153;28;20409;-69
2023/09/17 09:58:55;;;;;;;28.38;23.60;;;17.60;99.90;;;;;;5056247;28;20052;-69
2023/09/17 10:01:20;;;;;;;27.75;24.33;;;17.60;99.90;;;;;;5041444;28;20109;-69
2023/09/17 10:03:47;;;;;;;27.33;23.13;;;17.60;99.90;;;;;;5064506;28;20040;-69
2023/09/17 10:06:14;;;;;;;28.02;22.73;;;17.60;99.90;;;;;;5053689;28;20714;-69
2023/09/17 10:08:40;;;;;;;25.88;21.25;;;17.60;99.90;;;;;;5049161;28;20041;-68
2023/09/17 10:11:09;;;;;;;25.10;19.23;;;17.60;99.90;;;;;;5066753;28;20417;-69
2023/09/17 10:13:36;;;;;;;23.55;18.95;;;17.60;99.90;;;;;;5034998;28;20760;-69
2023/09/17 10:16:03;;;;;;;19.33;16.77;;;17.60;99.90;;;;;;5037610;28;20063;-69
2023/09/17 10:18:32;;;;;;;21.17;17.20;;;17.60;99.90;;;;;;5041042;28;20076;-69
2023/09/17 10:20:59;;;;;;;18.58;15.50;;;17.60;99.90;;;;;;5034795;28;20485;-68
2023/09/17 10:23:27;;;;;;;20.95;15.27;;;17.50;99.90;;;;;;5051291;28;20060;-68
2023/09/17 10:25:55;;;;;;;18.58;15.20;;;17.50;99.90;;;;;;5046785;28;20068;-69
2023/09/17 10:28:22;;;;;;;20.08;14.68;;;17.50;99.90;;;;;;5032199;28;20049;-68
2023/09/17 10:30:51;;;;;;;21.45;15.65;;;17.50;99.90;;;;;;5048710;28;20074;-68
2023/09/17 10:33:18;;;;;;;19.15;15.20;;;17.50;99.90;;;;;;5026732;28;20055;-69
2023/09/17 10:35:45;;;;;;;18.60;15.57;;;17.60;99.90;;;;;;5032143;28;20473;-68
2023/09/17 10:38:14;;;;;;;18.88;15.40;;;17.50;99.90;;;;;;5047563;28;20051;-68
2023/09/17 10:40:40;;;;;;;23.13;15.50;;;17.60;99.90;;;;;;5032004;28;20707;-69
2023/09/17 10:43:07;;;;;;;20.20;15.35;;;17.60;99.90;;;;;;5051029;28;20088;-69
2023/09/17 10:45:37;;;;;;;20.95;15.70;;;17.60;99.90;;;;;;5040448;28;20060;-68
2023/09/17 10:48:04;;;;;;;20.73;14.95;;;17.60;99.90;;;;;;5052462;28;20041;-68
2023/09/17 10:50:36;;;;;;;18.63;14.48;;;17.60;99.90;;;;;;5051638;28;20410;-69
2023/09/17 10:53:03;;;;;;;19.10;15.20;;;17.70;99.90;;;;;;5064697;28;20057;-69
2023/09/17 10:55:34;;;;;;;19.35;14.75;;;17.70;99.90;;;;;;5050499;28;20520;-69
2023/09/17 10:58:14;;;;;;;18.00;14.18;;;17.70;99.90;;;;;;5049557;28;20201;-70
2023/09/17 11:00:42;;;;;;;19.45;15.40;;;17.70;99.90;;;;;;5029464;28;20100;-69
2023/09/17 11:03:11;;;;;;;18.63;14.63;;;17.80;99.90;;;;;;5062945;28;20067;-69
2023/09/17 11:05:38;;;;;;;21.48;15.48;;;17.80;99.90;;;;;;5070025;28;20052;-69
2023/09/17 11:08:05;;;;;;;22.33;17.27;;;17.80;99.90;;;;;;5069304;28;20049;-70
2023/09/17 11:10:31;;;;;;;21.55;18.02;;;17.80;99.90;;;;;;5039961;28;20088;-70
2023/09/17 11:12:57;;;;;;;22.67;17.75;;;17.80;99.90;;;;;;5056196;28;20072;-69
2023/09/17 11:15:23;;;;;;;20.00;17.65;;;17.80;99.90;;;;;;5054265;28;20053;-69
2023/09/17 11:17:50;;;;;;;24.67;19.05;;;17.90;99.90;;;;;;5061588;28;20041;-69
2023/09/17 11:20:20;;;;;;;22.95;18.45;;;17.90;99.90;;;;;;5054322;28;20057;-69
2023/09/17 11:22:52;;;;;;;24.80;19.92;;;17.90;99.90;;;;;;5045667;28;20080;-68
2023/09/17 11:25:34;;;;;;;23.20;19.02;;;18.00;99.90;;;;;;5086290;28;20464;-69
2023/09/17 11:28:09;;;;;;;26.52;19.65;;;18.00;99.90;;;;;;5055361;28;20041;-69
2023/09/17 11:30:58;;;;;;;23.70;19.45;;;18.00;99.90;;;;;;5027355;28;21905;-69
2023/09/17 11:33:25;;;;;;;21.73;18.98;;;18.00;99.90;;;;;;5031124;28;20037;-69
2023/09/17 11:35:52;;;;;;;24.08;18.10;;;18.10;99.90;;;;;;5035790;28;20040;-68
2023/09/17 11:38:25;;;;;;;22.88;19.52;;;18.10;99.90;;;;;;5045801;28;20167;-69
2023/09/17 11:41:09;;;;;;;22.90;18.98;;;18.10;99.90;;;;;;5048543;28;20059;-68
2023/09/17 11:43:47;;;;;;;24.35;19.73;;;18.20;99.90;;;;;;5048834;28;20045;-69
2023/09/17 11:46:14;;;;;;;22.75;18.92;;;18.30;99.90;;;;;;5029938;28;20154;-69
2023/09/17 11:48:43;;;;;;;21.00;18.52;;;18.30;99.90;;;;;;5042804;28;20049;-69
2023/09/17 11:51:24;;;;;;;22.35;18.92;;;18.30;99.90;;;;;;5028750;28;20051;-70
2023/09/17 11:53:54;;;;;;;25.77;19.80;;;18.30;99.90;;;;;;5024985;28;20049;-69
2023/09/17 11:56:20;;;;;;;22.23;18.58;;;18.30;99.90;;;;;;5047603;28;20060;-69
2023/09/17 11:58:55;;;;;;;21.00;17.98;;;18.30;99.90;;;;;;5032609;28;20920;-69
2023/09/17 12:01:22;;;;;;;22.23;18.60;;;18.40;99.90;;;;;;5032757;28;20095;-69
2023/09/17 12:03:51;;;;;;;21.38;18.05;;;18.40;99.90;;;;;;5023835;28;20044;-69
2023/09/17 12:06:19;;;;;;;24.40;19.92;;;18.40;99.90;;;;;;5046942;28;20053;-69
2023/09/17 12:08:46;;;;;;;27.13;21.27;;;18.40;99.90;;;;;;5048413;28;20074;-69
2023/09/17 12:11:21;;;;;;;23.50;19.70;;;18.40;99.90;;;;;;5052938;28;20055;-69
2023/09/17 12:13:56;;;;;;;23.00;18.58;;;18.40;99.90;;;;;;5041852;28;20063;-69
2023/09/17 12:16:27;;;;;;;26.73;20.55;;;18.40;99.90;;;;;;5030655;28;20049;-69
2023/09/17 12:18:55;;;;;;;28.38;20.75;;;18.40;99.90;;;;;;5040956;28;20086;-69
2023/09/17 12:21:22;;;;;;;22.15;19.70;;;18.40;99.90;;;;;;5049931;28;20094;-69
2023/09/17 12:26:26;;;;;;;23.77;20.55;;;18.50;99.90;;;;;;5078925;28;20067;-69
2023/09/17 12:28:52;;;;;;;24.85;20.25;;;18.50;99.90;;;;;;5041933;28;20127;-69
2023/09/17 12:31:19;;;;;;;24.02;20.70;;;18.60;99.90;;;;;;5026198;28;20045;-69